Etusivu
METAR-TAF:

METAR-TAF

Lentoasemat :

Taylor County Airport

Medford, Wisconsin, Yhdysvallat

Leveyspiiri: 45-06-04N, Pituuspiiri: 090-18-12W, korkeus merenpinnasta: 448 m

Tämänhetkinen sää

Tämä raportti tehtiin 18 minuuttia sitten, kello 12.15 UTC
Tuuli 3 kn luoteesta
Lämpötila -7°C
Kosteus 93%
Ilmanpaine 1014 hPa
Näkyvyys: 16.1 km
selkeää

METAR: KMDZ 241215Z AUTO 31003KT 10SM CLR M07/M08 A2993 RMK AO2 T10731080

Aika: 06:33 (12:33 UTC)


TAF: puuttuu

Säähavainnot ja -ennusteet yli 4000 lentoasemalta (METAR- ja TAF-raportit).

Käytössä olevat sääasemat on merkitty karttaan keltaisilla ja punaisilla pisteillä.

Aseta hiiri pisteen päälle nähdäksesi sääaseman nimen.

Klikkaa sitten nähdäksesi säähavainnot ja -ennusteet.

Kartan vaihtaminen: klikkaa mustalla rastilla varustettuja vihreitä pisteitä, niin voit zoomata sisään; viivalla varustettua vihreää pistettä, niin voit zoomata ulos tai vihreitä nuolia, niin pääset viereisille kartoille.


METAR-TAF: